sensor_id;sensor_type;location;lat;lon;timestamp;P1;durP1;ratioP1;P2;durP2;ratioP2
22939;SDS011;11636;52.086;5.090;2022-09-09T00:02:20;2.47;;;0.80;;
22939;SDS011;11636;52.086;5.090;2022-09-09T00:05:18;2.30;;;0.90;;
22939;SDS011;11636;52.086;5.090;2022-09-09T00:08:22;2.72;;;0.70;;
22939;SDS011;11636;52.086;5.090;2022-09-09T00:11:20;1.50;;;0.60;;
22939;SDS011;11636;52.086;5.090;2022-09-09T00:17:43;3.33;;;1.20;;
22939;SDS011;11636;52.086;5.090;2022-09-09T00:20:44;1.83;;;0.77;;
22939;SDS011;11636;52.086;5.090;2022-09-09T00:23:46;2.03;;;0.93;;
22939;SDS011;11636;52.086;5.090;2022-09-09T00:29:55;1.80;;;0.82;;
22939;SDS011;11636;52.086;5.090;2022-09-09T00:32:46;2.10;;;0.90;;
22939;SDS011;11636;52.086;5.090;2022-09-09T00:35:46;1.83;;;0.73;;
22939;SDS011;11636;52.086;5.090;2022-09-09T00:38:42;2.05;;;0.70;;
22939;SDS011;11636;52.086;5.090;2022-09-09T00:41:43;2.28;;;0.93;;
22939;SDS011;11636;52.086;5.090;2022-09-09T00:48:11;2.33;;;0.70;;
22939;SDS011;11636;52.086;5.090;2022-09-09T00:51:13;2.55;;;0.90;;
22939;SDS011;11636;52.086;5.090;2022-09-09T00:54:17;2.53;;;1.10;;
22939;SDS011;11636;52.086;5.090;2022-09-09T00:57:25;2.70;;;0.90;;
22939;SDS011;11636;52.086;5.090;2022-09-09T01:00:22;1.77;;;0.80;;
22939;SDS011;11636;52.086;5.090;2022-09-09T01:06:40;3.28;;;1.23;;
22939;SDS011;11636;52.086;5.090;2022-09-09T01:12:50;3.03;;;1.48;;
22939;SDS011;11636;52.086;5.090;2022-09-09T01:15:46;2.75;;;1.00;;
22939;SDS011;11636;52.086;5.090;2022-09-09T01:18:49;2.90;;;0.98;;
22939;SDS011;11636;52.086;5.090;2022-09-09T01:21:56;2.08;;;1.08;;
22939;SDS011;11636;52.086;5.090;2022-09-09T01:25:20;3.38;;;1.13;;
22939;SDS011;11636;52.086;5.090;2022-09-09T01:28:19;3.05;;;1.02;;
22939;SDS011;11636;52.086;5.090;2022-09-09T01:31:28;2.47;;;0.95;;
22939;SDS011;11636;52.086;5.090;2022-09-09T01:34:22;2.00;;;1.00;;
22939;SDS011;11636;52.086;5.090;2022-09-09T01:37:17;1.60;;;0.80;;
22939;SDS011;11636;52.086;5.090;2022-09-09T01:40:04;2.63;;;1.20;;
22939;SDS011;11636;52.086;5.090;2022-09-09T01:42:58;2.20;;;1.05;;
22939;SDS011;11636;52.086;5.090;2022-09-09T01:45:53;2.60;;;1.30;;
22939;SDS011;11636;52.086;5.090;2022-09-09T01:48:50;3.15;;;1.48;;
22939;SDS011;11636;52.086;5.090;2022-09-09T01:51:46;3.42;;;1.65;;
22939;SDS011;11636;52.086;5.090;2022-09-09T01:54:42;3.55;;;1.60;;
22939;SDS011;11636;52.086;5.090;2022-09-09T01:57:39;3.08;;;1.70;;
22939;SDS011;11636;52.086;5.090;2022-09-09T02:00:37;3.75;;;1.80;;
22939;SDS011;11636;52.086;5.090;2022-09-09T02:03:37;3.63;;;1.80;;
22939;SDS011;11636;52.086;5.090;2022-09-09T02:06:37;3.20;;;1.98;;
22939;SDS011;11636;52.086;5.090;2022-09-09T02:09:32;3.17;;;2.10;;
22939;SDS011;11636;52.086;5.090;2022-09-09T02:12:27;3.35;;;2.13;;
22939;SDS011;11636;52.086;5.090;2022-09-09T02:15:52;3.28;;;2.00;;
22939;SDS011;11636;52.086;5.090;2022-09-09T02:18:38;4.10;;;2.20;;
22939;SDS011;11636;52.086;5.090;2022-09-09T02:21:45;3.25;;;2.00;;
22939;SDS011;11636;52.086;5.090;2022-09-09T02:24:35;3.15;;;1.98;;
22939;SDS011;11636;52.086;5.090;2022-09-09T02:27:30;4.43;;;2.22;;
22939;SDS011;11636;52.086;5.090;2022-09-09T02:30:18;2.97;;;1.85;;
22939;SDS011;11636;52.086;5.090;2022-09-09T02:33:13;4.05;;;2.20;;
22939;SDS011;11636;52.086;5.090;2022-09-09T02:36:01;4.10;;;2.50;;
22939;SDS011;11636;52.086;5.090;2022-09-09T02:38:56;3.70;;;2.20;;
22939;SDS011;11636;52.086;5.090;2022-09-09T02:41:43;4.03;;;2.35;;
22939;SDS011;11636;52.086;5.090;2022-09-09T02:44:37;3.80;;;2.35;;
22939;SDS011;11636;52.086;5.090;2022-09-09T02:50:34;3.30;;;1.98;;
22939;SDS011;11636;52.086;5.090;2022-09-09T02:53:35;4.47;;;2.20;;
22939;SDS011;11636;52.086;5.090;2022-09-09T02:56:39;3.60;;;2.10;;
22939;SDS011;11636;52.086;5.090;2022-09-09T02:59:30;3.45;;;1.80;;
22939;SDS011;11636;52.086;5.090;2022-09-09T03:02:24;4.03;;;1.92;;
22939;SDS011;11636;52.086;5.090;2022-09-09T03:05:18;3.90;;;1.92;;
22939;SDS011;11636;52.086;5.090;2022-09-09T03:08:05;3.65;;;1.98;;
22939;SDS011;11636;52.086;5.090;2022-09-09T03:10:59;4.50;;;2.20;;
22939;SDS011;11636;52.086;5.090;2022-09-09T03:13:49;3.10;;;2.08;;
22939;SDS011;11636;52.086;5.090;2022-09-09T03:16:42;3.88;;;2.20;;
22939;SDS011;11636;52.086;5.090;2022-09-09T03:19:36;3.63;;;2.30;;
22939;SDS011;11636;52.086;5.090;2022-09-09T03:22:24;3.95;;;2.05;;
22939;SDS011;11636;52.086;5.090;2022-09-09T03:25:18;4.65;;;2.40;;
22939;SDS011;11636;52.086;5.090;2022-09-09T03:28:12;4.28;;;2.00;;
22939;SDS011;11636;52.086;5.090;2022-09-09T03:31:06;3.22;;;1.95;;
22939;SDS011;11636;52.086;5.090;2022-09-09T03:33:56;4.72;;;2.28;;
22939;SDS011;11636;52.086;5.090;2022-09-09T03:36:50;3.45;;;2.03;;
22939;SDS011;11636;52.086;5.090;2022-09-09T03:39:38;3.10;;;1.98;;
22939;SDS011;11636;52.086;5.090;2022-09-09T03:42:32;3.53;;;1.83;;
22939;SDS011;11636;52.086;5.090;2022-09-09T03:45:25;3.80;;;2.00;;
22939;SDS011;11636;52.086;5.090;2022-09-09T03:48:13;3.72;;;2.15;;
22939;SDS011;11636;52.086;5.090;2022-09-09T03:51:07;3.70;;;2.03;;
22939;SDS011;11636;52.086;5.090;2022-09-09T03:54:01;4.70;;;2.35;;
22939;SDS011;11636;52.086;5.090;2022-09-09T03:59:44;5.03;;;2.10;;
22939;SDS011;11636;52.086;5.090;2022-09-09T04:02:38;3.53;;;2.25;;
22939;SDS011;11636;52.086;5.090;2022-09-09T04:05:26;3.15;;;2.13;;
22939;SDS011;11636;52.086;5.090;2022-09-09T04:08:20;3.08;;;1.90;;
22939;SDS011;11636;52.086;5.090;2022-09-09T04:11:14;3.72;;;2.00;;
22939;SDS011;11636;52.086;5.090;2022-09-09T04:14:08;4.07;;;2.13;;
22939;SDS011;11636;52.086;5.090;2022-09-09T04:16:56;3.53;;;1.77;;
22939;SDS011;11636;52.086;5.090;2022-09-09T04:19:49;3.15;;;1.70;;
22939;SDS011;11636;52.086;5.090;2022-09-09T04:22:37;4.18;;;2.08;;
22939;SDS011;11636;52.086;5.090;2022-09-09T04:25:31;4.53;;;1.98;;
22939;SDS011;11636;52.086;5.090;2022-09-09T04:28:20;3.55;;;1.70;;
22939;SDS011;11636;52.086;5.090;2022-09-09T04:31:17;3.50;;;1.88;;
22939;SDS011;11636;52.086;5.090;2022-09-09T04:34:06;3.25;;;1.52;;
22939;SDS011;11636;52.086;5.090;2022-09-09T04:37:01;4.72;;;1.85;;
22939;SDS011;11636;52.086;5.090;2022-09-09T04:39:48;5.00;;;1.92;;
22939;SDS011;11636;52.086;5.090;2022-09-09T04:42:42;3.15;;;1.80;;
22939;SDS011;11636;52.086;5.090;2022-09-09T04:45:30;3.83;;;1.90;;
22939;SDS011;11636;52.086;5.090;2022-09-09T04:48:24;3.80;;;1.83;;
22939;SDS011;11636;52.086;5.090;2022-09-09T04:51:18;3.08;;;1.67;;
22939;SDS011;11636;52.086;5.090;2022-09-09T04:54:12;2.92;;;1.48;;
22939;SDS011;11636;52.086;5.090;2022-09-09T04:56:59;5.18;;;1.70;;
22939;SDS011;11636;52.086;5.090;2022-09-09T04:59:53;5.18;;;2.35;;
22939;SDS011;11636;52.086;5.090;2022-09-09T05:02:40;4.68;;;2.25;;
22939;SDS011;11636;52.086;5.090;2022-09-09T05:05:35;3.33;;;1.60;;
22939;SDS011;11636;52.086;5.090;2022-09-09T05:08:22;3.10;;;1.48;;
22939;SDS011;11636;52.086;5.090;2022-09-09T05:14:04;5.13;;;1.95;;
22939;SDS011;11636;52.086;5.090;2022-09-09T05:16:58;3.80;;;1.75;;
22939;SDS011;11636;52.086;5.090;2022-09-09T05:19:45;3.38;;;1.83;;
22939;SDS011;11636;52.086;5.090;2022-09-09T05:22:39;3.78;;;1.88;;
22939;SDS011;11636;52.086;5.090;2022-09-09T05:25:33;3.97;;;1.58;;
22939;SDS011;11636;52.086;5.090;2022-09-09T05:28:27;3.83;;;1.35;;
22939;SDS011;11636;52.086;5.090;2022-09-09T05:31:22;4.15;;;1.60;;
22939;SDS011;11636;52.086;5.090;2022-09-09T05:34:16;3.40;;;1.40;;
22939;SDS011;11636;52.086;5.090;2022-09-09T05:37:03;2.80;;;1.20;;
22939;SDS011;11636;52.086;5.090;2022-09-09T05:39:57;3.33;;;1.50;;
22939;SDS011;11636;52.086;5.090;2022-09-09T05:42:47;3.40;;;1.50;;
22939;SDS011;11636;52.086;5.090;2022-09-09T05:45:41;3.38;;;1.40;;
22939;SDS011;11636;52.086;5.090;2022-09-09T05:48:36;2.50;;;1.10;;
22939;SDS011;11636;52.086;5.090;2022-09-09T05:51:25;3.95;;;1.55;;
22939;SDS011;11636;52.086;5.090;2022-09-09T05:54:21;3.92;;;1.25;;
22939;SDS011;11636;52.086;5.090;2022-09-09T05:57:15;3.47;;;1.60;;
22939;SDS011;11636;52.086;5.090;2022-09-09T06:00:02;3.25;;;1.45;;
22939;SDS011;11636;52.086;5.090;2022-09-09T06:02:56;6.57;;;2.15;;
22939;SDS011;11636;52.086;5.090;2022-09-09T06:05:43;4.32;;;1.70;;
22939;SDS011;11636;52.086;5.090;2022-09-09T06:08:38;3.20;;;1.40;;
22939;SDS011;11636;52.086;5.090;2022-09-09T06:11:27;4.72;;;1.80;;
22939;SDS011;11636;52.086;5.090;2022-09-09T06:14:25;3.88;;;1.45;;
22939;SDS011;11636;52.086;5.090;2022-09-09T06:17:20;3.80;;;1.60;;
22939;SDS011;11636;52.086;5.090;2022-09-09T06:20:16;4.05;;;1.30;;
22939;SDS011;11636;52.086;5.090;2022-09-09T06:23:03;3.28;;;1.23;;
22939;SDS011;11636;52.086;5.090;2022-09-09T06:26:13;4.80;;;1.67;;
22939;SDS011;11636;52.086;5.090;2022-09-09T06:29:12;4.00;;;1.30;;
22939;SDS011;11636;52.086;5.090;2022-09-09T06:31:59;2.85;;;1.20;;
22939;SDS011;11636;52.086;5.090;2022-09-09T06:34:53;2.97;;;1.10;;
22939;SDS011;11636;52.086;5.090;2022-09-09T06:37:44;4.07;;;1.60;;
22939;SDS011;11636;52.086;5.090;2022-09-09T06:40:39;2.75;;;1.30;;
22939;SDS011;11636;52.086;5.090;2022-09-09T06:43:26;2.97;;;1.10;;
22939;SDS011;11636;52.086;5.090;2022-09-09T06:46:21;2.88;;;1.27;;
22939;SDS011;11636;52.086;5.090;2022-09-09T06:49:09;5.93;;;2.22;;
22939;SDS011;11636;52.086;5.090;2022-09-09T06:52:06;3.13;;;1.50;;
22939;SDS011;11636;52.086;5.090;2022-09-09T06:55:02;3.33;;;0.90;;
22939;SDS011;11636;52.086;5.090;2022-09-09T06:57:50;6.43;;;1.92;;
22939;SDS011;11636;52.086;5.090;2022-09-09T07:00:45;8.32;;;2.50;;
22939;SDS011;11636;52.086;5.090;2022-09-09T07:03:32;5.85;;;1.92;;
22939;SDS011;11636;52.086;5.090;2022-09-09T07:06:45;3.22;;;1.30;;
22939;SDS011;11636;52.086;5.090;2022-09-09T07:09:32;6.25;;;1.85;;
22939;SDS011;11636;52.086;5.090;2022-09-09T07:12:26;4.00;;;1.13;;
22939;SDS011;11636;52.086;5.090;2022-09-09T07:15:13;4.57;;;1.65;;
22939;SDS011;11636;52.086;5.090;2022-09-09T07:18:07;5.90;;;2.15;;
22939;SDS011;11636;52.086;5.090;2022-09-09T07:20:56;2.80;;;1.25;;
22939;SDS011;11636;52.086;5.090;2022-09-09T07:23:50;4.93;;;1.80;;
22939;SDS011;11636;52.086;5.090;2022-09-09T07:26:38;6.25;;;1.30;;
22939;SDS011;11636;52.086;5.090;2022-09-09T07:29:33;9.80;;;2.50;;
22939;SDS011;11636;52.086;5.090;2022-09-09T07:32:27;5.20;;;1.90;;
22939;SDS011;11636;52.086;5.090;2022-09-09T07:35:14;6.70;;;2.13;;
22939;SDS011;11636;52.086;5.090;2022-09-09T07:38:08;6.72;;;2.03;;
22939;SDS011;11636;52.086;5.090;2022-09-09T07:41:02;5.25;;;1.77;;
22939;SDS011;11636;52.086;5.090;2022-09-09T07:43:58;5.45;;;1.85;;
22939;SDS011;11636;52.086;5.090;2022-09-09T07:46:52;6.82;;;2.17;;
22939;SDS011;11636;52.086;5.090;2022-09-09T07:49:39;6.13;;;1.80;;
22939;SDS011;11636;52.086;5.090;2022-09-09T07:52:34;6.35;;;2.08;;
22939;SDS011;11636;52.086;5.090;2022-09-09T07:55:28;5.88;;;2.17;;
22939;SDS011;11636;52.086;5.090;2022-09-09T07:58:22;3.45;;;1.38;;
22939;SDS011;11636;52.086;5.090;2022-09-09T08:01:10;5.47;;;2.03;;
22939;SDS011;11636;52.086;5.090;2022-09-09T08:04:10;6.57;;;2.05;;
22939;SDS011;11636;52.086;5.090;2022-09-09T08:07:01;4.20;;;1.65;;
22939;SDS011;11636;52.086;5.090;2022-09-09T08:09:56;5.60;;;2.00;;
22939;SDS011;11636;52.086;5.090;2022-09-09T08:12:43;4.07;;;1.50;;
22939;SDS011;11636;52.086;5.090;2022-09-09T08:16:09;5.63;;;1.73;;
22939;SDS011;11636;52.086;5.090;2022-09-09T08:18:56;7.57;;;2.10;;
22939;SDS011;11636;52.086;5.090;2022-09-09T08:21:51;7.20;;;1.85;;
22939;SDS011;11636;52.086;5.090;2022-09-09T08:24:38;5.13;;;1.75;;
22939;SDS011;11636;52.086;5.090;2022-09-09T08:27:40;7.47;;;2.00;;
22939;SDS011;11636;52.086;5.090;2022-09-09T08:30:28;6.55;;;1.83;;
22939;SDS011;11636;52.086;5.090;2022-09-09T08:33:21;4.47;;;1.70;;
22939;SDS011;11636;52.086;5.090;2022-09-09T08:36:09;8.05;;;2.20;;
22939;SDS011;11636;52.086;5.090;2022-09-09T08:39:05;5.93;;;1.50;;
22939;SDS011;11636;52.086;5.090;2022-09-09T08:45:14;6.38;;;1.70;;
22939;SDS011;11636;52.086;5.090;2022-09-09T08:48:16;5.40;;;1.48;;
22939;SDS011;11636;52.086;5.090;2022-09-09T08:51:34;5.47;;;1.35;;
22939;SDS011;11636;52.086;5.090;2022-09-09T08:54:30;3.85;;;1.60;;
22939;SDS011;11636;52.086;5.090;2022-09-09T08:57:38;8.20;;;1.98;;
22939;SDS011;11636;52.086;5.090;2022-09-09T09:00:27;4.47;;;1.30;;
22939;SDS011;11636;52.086;5.090;2022-09-09T09:12:25;4.03;;;1.30;;
22939;SDS011;11636;52.086;5.090;2022-09-09T09:15:25;3.10;;;1.42;;
22939;SDS011;11636;52.086;5.090;2022-09-09T09:18:23;4.03;;;1.45;;
22939;SDS011;11636;52.086;5.090;2022-09-09T09:21:21;4.25;;;1.42;;
22939;SDS011;11636;52.086;5.090;2022-09-09T09:27:39;3.83;;;1.17;;
22939;SDS011;11636;52.086;5.090;2022-09-09T09:30:39;3.83;;;1.20;;
22939;SDS011;11636;52.086;5.090;2022-09-09T09:36:45;3.58;;;1.38;;
22939;SDS011;11636;52.086;5.090;2022-09-09T09:39:46;4.60;;;1.70;;
22939;SDS011;11636;52.086;5.090;2022-09-09T09:42:58;7.15;;;1.60;;
22939;SDS011;11636;52.086;5.090;2022-09-09T09:45:53;5.07;;;1.60;;
22939;SDS011;11636;52.086;5.090;2022-09-09T09:49:04;5.45;;;1.70;;
22939;SDS011;11636;52.086;5.090;2022-09-09T09:51:59;3.85;;;1.35;;
22939;SDS011;11636;52.086;5.090;2022-09-09T09:54:56;4.72;;;1.23;;
22939;SDS011;11636;52.086;5.090;2022-09-09T09:57:52;3.60;;;1.20;;
22939;SDS011;11636;52.086;5.090;2022-09-09T10:00:51;3.15;;;1.23;;
22939;SDS011;11636;52.086;5.090;2022-09-09T10:03:50;4.20;;;1.27;;
22939;SDS011;11636;52.086;5.090;2022-09-09T10:06:38;3.55;;;1.20;;
22939;SDS011;11636;52.086;5.090;2022-09-09T10:09:32;3.67;;;1.27;;
22939;SDS011;11636;52.086;5.090;2022-09-09T10:15:46;4.57;;;1.40;;
22939;SDS011;11636;52.086;5.090;2022-09-09T10:22:02;3.47;;;1.20;;
22939;SDS011;11636;52.086;5.090;2022-09-09T10:43:50;2.83;;;1.05;;
22939;SDS011;11636;52.086;5.090;2022-09-09T10:53:58;3.58;;;1.20;;
22939;SDS011;11636;52.086;5.090;2022-09-09T10:57:17;3.25;;;0.93;;
22939;SDS011;11636;52.086;5.090;2022-09-09T11:00:22;3.65;;;1.20;;
22939;SDS011;11636;52.086;5.090;2022-09-09T11:03:22;5.25;;;1.52;;
22939;SDS011;11636;52.086;5.090;2022-09-09T11:06:19;4.35;;;1.50;;
22939;SDS011;11636;52.086;5.090;2022-09-09T11:09:16;4.00;;;1.45;;
22939;SDS011;11636;52.086;5.090;2022-09-09T11:12:15;5.07;;;1.90;;
22939;SDS011;11636;52.086;5.090;2022-09-09T11:15:12;5.25;;;1.40;;
22939;SDS011;11636;52.086;5.090;2022-09-09T11:18:13;3.70;;;1.20;;
22939;SDS011;11636;52.086;5.090;2022-09-09T11:21:07;4.45;;;1.38;;
22939;SDS011;11636;52.086;5.090;2022-09-09T11:24:08;3.45;;;1.00;;
22939;SDS011;11636;52.086;5.090;2022-09-09T11:27:04;2.47;;;1.05;;
22939;SDS011;11636;52.086;5.090;2022-09-09T11:30:16;6.90;;;2.40;;
22939;SDS011;11636;52.086;5.090;2022-09-09T11:40:14;4.00;;;1.70;;
22939;SDS011;11636;52.086;5.090;2022-09-09T11:43:24;5.25;;;1.33;;
22939;SDS011;11636;52.086;5.090;2022-09-09T11:46:35;4.95;;;1.60;;
22939;SDS011;11636;52.086;5.090;2022-09-09T11:49:28;5.63;;;2.28;;
22939;SDS011;11636;52.086;5.090;2022-09-09T11:52:37;6.22;;;2.10;;
22939;SDS011;11636;52.086;5.090;2022-09-09T11:55:36;4.03;;;1.75;;
22939;SDS011;11636;52.086;5.090;2022-09-09T11:58:33;3.58;;;1.40;;
22939;SDS011;11636;52.086;5.090;2022-09-09T12:01:37;2.95;;;1.30;;
22939;SDS011;11636;52.086;5.090;2022-09-09T12:04:37;5.00;;;2.35;;
22939;SDS011;11636;52.086;5.090;2022-09-09T12:10:57;6.93;;;1.80;;
22939;SDS011;11636;52.086;5.090;2022-09-09T12:13:56;5.90;;;1.95;;
22939;SDS011;11636;52.086;5.090;2022-09-09T12:16:56;5.75;;;2.00;;
22939;SDS011;11636;52.086;5.090;2022-09-09T12:30:01;4.97;;;1.83;;
22939;SDS011;11636;52.086;5.090;2022-09-09T12:33:08;5.82;;;2.42;;
22939;SDS011;11636;52.086;5.090;2022-09-09T12:35:59;5.95;;;2.25;;
22939;SDS011;11636;52.086;5.090;2022-09-09T12:38:55;5.88;;;2.55;;
22939;SDS011;11636;52.086;5.090;2022-09-09T12:41:52;4.45;;;1.50;;
22939;SDS011;11636;52.086;5.090;2022-09-09T12:44:54;4.70;;;1.83;;
22939;SDS011;11636;52.086;5.090;2022-09-09T12:48:00;3.03;;;1.50;;
22939;SDS011;11636;52.086;5.090;2022-09-09T12:50:58;4.75;;;1.77;;
22939;SDS011;11636;52.086;5.090;2022-09-09T12:53:54;3.85;;;1.50;;
22939;SDS011;11636;52.086;5.090;2022-09-09T12:56:48;4.22;;;1.45;;
22939;SDS011;11636;52.086;5.090;2022-09-09T12:59:37;4.00;;;1.40;;
22939;SDS011;11636;52.086;5.090;2022-09-09T13:02:32;3.80;;;1.40;;
22939;SDS011;11636;52.086;5.090;2022-09-09T13:05:28;4.93;;;2.10;;
22939;SDS011;11636;52.086;5.090;2022-09-09T13:08:21;7.20;;;2.10;;
22939;SDS011;11636;52.086;5.090;2022-09-09T13:11:49;4.97;;;2.10;;
22939;SDS011;11636;52.086;5.090;2022-09-09T13:14:33;4.15;;;1.60;;
22939;SDS011;11636;52.086;5.090;2022-09-09T13:17:30;4.93;;;1.77;;
22939;SDS011;11636;52.086;5.090;2022-09-09T13:20:24;4.97;;;1.83;;
22939;SDS011;11636;52.086;5.090;2022-09-09T13:23:12;4.22;;;1.67;;
22939;SDS011;11636;52.086;5.090;2022-09-09T13:26:27;5.03;;;1.80;;
22939;SDS011;11636;52.086;5.090;2022-09-09T13:29:18;3.67;;;1.33;;
22939;SDS011;11636;52.086;5.090;2022-09-09T13:32:16;4.07;;;1.60;;
22939;SDS011;11636;52.086;5.090;2022-09-09T13:35:22;3.80;;;1.65;;
22939;SDS011;11636;52.086;5.090;2022-09-09T13:38:12;5.40;;;1.85;;
22939;SDS011;11636;52.086;5.090;2022-09-09T13:41:18;4.82;;;1.50;;
22939;SDS011;11636;52.086;5.090;2022-09-09T13:44:17;8.65;;;2.25;;
22939;SDS011;11636;52.086;5.090;2022-09-09T13:47:26;5.97;;;1.70;;
22939;SDS011;11636;52.086;5.090;2022-09-09T13:53:21;5.72;;;2.08;;
22939;SDS011;11636;52.086;5.090;2022-09-09T13:56:14;5.28;;;2.42;;
22939;SDS011;11636;52.086;5.090;2022-09-09T13:59:03;5.25;;;2.03;;
22939;SDS011;11636;52.086;5.090;2022-09-09T14:01:58;4.38;;;1.80;;
22939;SDS011;11636;52.086;5.090;2022-09-09T14:04:55;3.55;;;1.85;;
22939;SDS011;11636;52.086;5.090;2022-09-09T14:07:49;3.30;;;2.08;;
22939;SDS011;11636;52.086;5.090;2022-09-09T14:10:42;3.83;;;2.05;;
22939;SDS011;11636;52.086;5.090;2022-09-09T14:13:36;4.50;;;1.95;;
22939;SDS011;11636;52.086;5.090;2022-09-09T14:16:30;3.53;;;1.90;;
22939;SDS011;11636;52.086;5.090;2022-09-09T14:19:24;3.42;;;1.83;;
22939;SDS011;11636;52.086;5.090;2022-09-09T14:22:18;4.13;;;2.10;;
22939;SDS011;11636;52.086;5.090;2022-09-09T14:25:12;4.72;;;2.65;;
22939;SDS011;11636;52.086;5.090;2022-09-09T14:28:00;4.60;;;2.30;;
22939;SDS011;11636;52.086;5.090;2022-09-09T14:30:54;3.83;;;2.30;;
22939;SDS011;11636;52.086;5.090;2022-09-09T14:33:45;4.35;;;2.30;;
22939;SDS011;11636;52.086;5.090;2022-09-09T14:36:38;4.75;;;2.30;;
22939;SDS011;11636;52.086;5.090;2022-09-09T14:39:27;5.18;;;2.45;;
22939;SDS011;11636;52.086;5.090;2022-09-09T14:42:21;4.90;;;2.28;;
22939;SDS011;11636;52.086;5.090;2022-09-09T14:45:08;7.22;;;2.28;;
22939;SDS011;11636;52.086;5.090;2022-09-09T14:48:03;6.38;;;1.75;;
22939;SDS011;11636;52.086;5.090;2022-09-09T14:50:50;5.13;;;1.80;;
22939;SDS011;11636;52.086;5.090;2022-09-09T14:53:44;6.07;;;1.88;;
22939;SDS011;11636;52.086;5.090;2022-09-09T14:56:32;4.50;;;1.80;;
22939;SDS011;11636;52.086;5.090;2022-09-09T14:59:29;4.22;;;1.50;;
22939;SDS011;11636;52.086;5.090;2022-09-09T15:02:23;4.60;;;1.75;;
22939;SDS011;11636;52.086;5.090;2022-09-09T15:05:10;5.90;;;1.75;;
22939;SDS011;11636;52.086;5.090;2022-09-09T15:08:04;3.35;;;1.65;;
22939;SDS011;11636;52.086;5.090;2022-09-09T15:10:51;4.85;;;2.20;;
22939;SDS011;11636;52.086;5.090;2022-09-09T15:13:53;4.22;;;1.60;;
22939;SDS011;11636;52.086;5.090;2022-09-09T15:16:41;4.95;;;1.95;;
22939;SDS011;11636;52.086;5.090;2022-09-09T15:19:35;5.70;;;2.00;;
22939;SDS011;11636;52.086;5.090;2022-09-09T15:22:23;6.00;;;1.90;;
22939;SDS011;11636;52.086;5.090;2022-09-09T15:25:17;5.10;;;1.90;;
22939;SDS011;11636;52.086;5.090;2022-09-09T15:28:05;4.05;;;1.67;;
22939;SDS011;11636;52.086;5.090;2022-09-09T15:31:06;5.50;;;1.60;;
22939;SDS011;11636;52.086;5.090;2022-09-09T15:34:04;3.03;;;1.38;;
22939;SDS011;11636;52.086;5.090;2022-09-09T15:36:52;3.33;;;1.30;;
22939;SDS011;11636;52.086;5.090;2022-09-09T15:39:48;3.10;;;1.60;;
22939;SDS011;11636;52.086;5.090;2022-09-09T15:42:35;2.80;;;1.30;;
22939;SDS011;11636;52.086;5.090;2022-09-09T15:45:29;4.03;;;1.20;;
22939;SDS011;11636;52.086;5.090;2022-09-09T15:48:17;3.70;;;1.55;;
22939;SDS011;11636;52.086;5.090;2022-09-09T15:51:11;2.53;;;0.85;;
22939;SDS011;11636;52.086;5.090;2022-09-09T15:54:18;2.85;;;1.10;;
22939;SDS011;11636;52.086;5.090;2022-09-09T15:57:15;3.63;;;1.40;;
22939;SDS011;11636;52.086;5.090;2022-09-09T16:00:09;4.20;;;1.70;;
22939;SDS011;11636;52.086;5.090;2022-09-09T16:02:58;3.60;;;1.25;;
22939;SDS011;11636;52.086;5.090;2022-09-09T16:05:52;4.50;;;1.50;;
22939;SDS011;11636;52.086;5.090;2022-09-09T16:08:40;4.20;;;1.70;;
22939;SDS011;11636;52.086;5.090;2022-09-09T16:11:37;3.55;;;1.30;;
22939;SDS011;11636;52.086;5.090;2022-09-09T16:14:32;4.57;;;1.80;;
22939;SDS011;11636;52.086;5.090;2022-09-09T16:17:29;5.78;;;2.03;;
22939;SDS011;11636;52.086;5.090;2022-09-09T16:20:23;3.70;;;1.80;;
22939;SDS011;11636;52.086;5.090;2022-09-09T16:23:10;4.50;;;1.85;;
22939;SDS011;11636;52.086;5.090;2022-09-09T16:26:04;5.60;;;2.22;;
22939;SDS011;11636;52.086;5.090;2022-09-09T16:28:51;5.55;;;2.30;;
22939;SDS011;11636;52.086;5.090;2022-09-09T16:31:47;8.85;;;3.47;;
22939;SDS011;11636;52.086;5.090;2022-09-09T16:34:48;7.05;;;2.60;;
22939;SDS011;11636;52.086;5.090;2022-09-09T16:37:36;9.05;;;3.30;;
22939;SDS011;11636;52.086;5.090;2022-09-09T16:40:29;5.93;;;2.47;;
22939;SDS011;11636;52.086;5.090;2022-09-09T16:43:16;5.57;;;2.47;;
22939;SDS011;11636;52.086;5.090;2022-09-09T16:46:14;6.15;;;2.20;;
22939;SDS011;11636;52.086;5.090;2022-09-09T16:49:10;5.55;;;2.22;;
22939;SDS011;11636;52.086;5.090;2022-09-09T16:51:58;3.55;;;2.10;;
22939;SDS011;11636;52.086;5.090;2022-09-09T16:54:53;6.38;;;2.72;;
22939;SDS011;11636;52.086;5.090;2022-09-09T16:57:47;4.72;;;2.13;;
22939;SDS011;11636;52.086;5.090;2022-09-09T17:00:37;4.72;;;2.20;;
22939;SDS011;11636;52.086;5.090;2022-09-09T17:03:31;6.00;;;3.10;;
22939;SDS011;11636;52.086;5.090;2022-09-09T17:06:19;4.22;;;2.10;;
22939;SDS011;11636;52.086;5.090;2022-09-09T17:09:13;3.47;;;2.20;;
22939;SDS011;11636;52.086;5.090;2022-09-09T17:12:07;3.67;;;2.33;;
22939;SDS011;11636;52.086;5.090;2022-09-09T17:14:54;3.28;;;2.15;;
22939;SDS011;11636;52.086;5.090;2022-09-09T17:17:50;6.72;;;2.70;;
22939;SDS011;11636;52.086;5.090;2022-09-09T17:20:46;5.00;;;2.50;;
22939;SDS011;11636;52.086;5.090;2022-09-09T17:23:34;4.28;;;2.40;;
22939;SDS011;11636;52.086;5.090;2022-09-09T17:26:32;4.57;;;2.40;;
22939;SDS011;11636;52.086;5.090;2022-09-09T17:29:26;4.57;;;2.28;;
22939;SDS011;11636;52.086;5.090;2022-09-09T17:32:13;4.55;;;2.13;;
22939;SDS011;11636;52.086;5.090;2022-09-09T17:35:07;5.60;;;2.33;;
22939;SDS011;11636;52.086;5.090;2022-09-09T17:37:54;3.35;;;1.63;;
22939;SDS011;11636;52.086;5.090;2022-09-09T17:40:49;4.57;;;1.88;;
22939;SDS011;11636;52.086;5.090;2022-09-09T17:43:37;3.65;;;1.90;;
22939;SDS011;11636;52.086;5.090;2022-09-09T17:46:34;3.47;;;1.98;;
22939;SDS011;11636;52.086;5.090;2022-09-09T17:52:17;3.42;;;1.58;;
22939;SDS011;11636;52.086;5.090;2022-09-09T17:55:04;4.30;;;2.05;;
22939;SDS011;11636;52.086;5.090;2022-09-09T17:57:58;6.85;;;2.50;;
22939;SDS011;11636;52.086;5.090;2022-09-09T18:00:45;5.20;;;2.22;;
22939;SDS011;11636;52.086;5.090;2022-09-09T18:03:39;4.70;;;2.03;;
22939;SDS011;11636;52.086;5.090;2022-09-09T18:06:36;2.58;;;1.33;;
22939;SDS011;11636;52.086;5.090;2022-09-09T18:09:25;3.10;;;1.40;;
22939;SDS011;11636;52.086;5.090;2022-09-09T18:12:19;5.00;;;1.95;;
22939;SDS011;11636;52.086;5.090;2022-09-09T18:15:13;3.25;;;1.60;;
22939;SDS011;11636;52.086;5.090;2022-09-09T18:18:23;2.85;;;1.55;;
22939;SDS011;11636;52.086;5.090;2022-09-09T18:21:17;2.47;;;1.23;;
22939;SDS011;11636;52.086;5.090;2022-09-09T18:24:12;3.20;;;1.17;;
22939;SDS011;11636;52.086;5.090;2022-09-09T18:27:01;2.65;;;1.42;;
22939;SDS011;11636;52.086;5.090;2022-09-09T18:29:55;2.30;;;1.20;;
22939;SDS011;11636;52.086;5.090;2022-09-09T18:32:47;2.83;;;1.60;;
22939;SDS011;11636;52.086;5.090;2022-09-09T18:35:42;2.60;;;1.48;;
22939;SDS011;11636;52.086;5.090;2022-09-09T18:38:36;4.50;;;2.50;;
22939;SDS011;11636;52.086;5.090;2022-09-09T18:41:31;4.00;;;2.20;;
22939;SDS011;11636;52.086;5.090;2022-09-09T18:44:28;3.28;;;1.88;;
22939;SDS011;11636;52.086;5.090;2022-09-09T18:47:24;4.22;;;1.95;;
22939;SDS011;11636;52.086;5.090;2022-09-09T18:50:11;2.60;;;1.52;;
22939;SDS011;11636;52.086;5.090;2022-09-09T18:53:05;4.80;;;1.90;;
22939;SDS011;11636;52.086;5.090;2022-09-09T18:55:59;3.00;;;1.67;;
22939;SDS011;11636;52.086;5.090;2022-09-09T18:58:54;2.42;;;1.30;;
22939;SDS011;11636;52.086;5.090;2022-09-09T19:01:49;3.28;;;1.85;;
22939;SDS011;11636;52.086;5.090;2022-09-09T19:04:44;4.32;;;2.03;;
22939;SDS011;11636;52.086;5.090;2022-09-09T19:07:31;4.13;;;2.08;;
22939;SDS011;11636;52.086;5.090;2022-09-09T19:10:25;4.88;;;2.33;;
22939;SDS011;11636;52.086;5.090;2022-09-09T19:13:12;3.58;;;1.80;;
22939;SDS011;11636;52.086;5.090;2022-09-09T19:16:07;3.47;;;1.85;;
22939;SDS011;11636;52.086;5.090;2022-09-09T19:19:03;3.05;;;1.60;;